Monday, May 02, 2016
23:16 UTC
  |  Log In   |  Register Free
Airport Search:

Churchill Downs Airport
(22KY)

Churchill Downs Airport Diagram
No Airport Diagram Available

FAA data valid effective Mar 31 2016 - May 26 2016 (unless otherwise noted).

 
 
 
 
 
 
 
 
 
 
 
 
 
 
Summary: Churchill Downs (22KY)

Weather Summary


METAR for 22KY is not available. Closest METAR is for KLOU 5.2 nm SW
KLOU  (5.2 nm SW)   (most recent observation was updated at 22:25 UTC)
022253Z 34005KT 10SM OVC036 18/11 A2994 RMK AO2 SLP135 T01780106

KFTK  (20.2 nm NE)   (most recent observation was updated at 22:25 UTC)
022258Z AUTO 31004KT 10SM FEW028 OVC038 17/11 A2992 RMK AO2 SLP132 T01670112

TAF for 22KY is not available.
KSDF
AMD 022122Z 0221/0324 30010KT P6SM FEW030 BKN100 TEMPO 0221/0224 BKN030 FM030000 31007KT P6SM SCT025 BKN080 FM030600 33005KT 4SM BR BKN015 FM031300 31006KT P6SM BKN025 FM031700 30008KT P6SM BKN035

KFTK  (20.2 nm NE)   (most recent observation was updatred at 21:70 UTC)
021700Z 0217/0323 25009KT 9999 BKN020 BKN100 QNH2994INS BECMG 0222/0223 30009KT 9999 BKN025 OVC100 QNH2990INS TX21/0220Z TN11/0311Z


GlobalAir.com is loading additional information.
Current weather conditions are not available for 22KY.

The nearest NOAA weather station is at SDF (2 nm SE from 22KY)
 Current Weather at SDF
65.0 F° (18.3 C°)
Overcast
Northwest winds at 9.2 mph
Pressure:
29.92 in
Humidity:
61%
Wind:
Northwest at 9.2 MPH (8 KT)
Dew Point:
51.1 F° (10.6 C°)
Visibility:
10.00 mi
22KY NOAA Radar

Runway Summary

ID Dimensions Surface Instrument Approaches
H1 125 ft x 250 ft Brick N/A

Communications Summary


CTAFN/A
UNICOMN/A
ATISN/A
CLEARANCE DELIVERYN/A

Terminal Procedures Summary


No terminal procedures available for 22KY





Closest Alternate Airports with Instrument Procedures

KSDF - Louisville International-Standiford Field - 2.7 nm SE from 22KY

KLOU - Bowman Field - 6 nm NE from 22KY

KJVY - Clark Regional - 11.4 nm NE from 22KY

KBRY - Samuels Field - 30.6 nm SE from 22KY

KEKX - Addington Field - 36.7 nm SW from 22KY

KIMS - Madison Municipal - 41.9 nm NE from 22KY

KFFT - Capital City - 47 nm SE from 22KY

K6I2 - Lebanon-Springfield - 48.8 nm SE from 22KY

KSER - Freeman Municipal - 50.5 nm NW from 22KY

KFRH - French Lick Municipal - 51.5 nm NW from 22KY

Find All Airport Services Find A Hotel Find A Rental Car Find A Golf Course Find A Restaurant $100 Hamburger



FBO's on the Field
FBO Company Facility Photos Services Transportation Aviation Fuel Prices: Prices include tax
Catering Weather Repair Courtesy Rental Type 100LL JetA JetA+ MOGAS 8087
 
Add another FBO Facility Photos Catering Weather Repair Courtesy Rental Type 100LL JetA JetA+ MOGAS 8087
Services Transportation Aviation Fuel Prices: Prices include tax
There are no FBO's currently reporting fuel at 22KY. List your FBO now


model-print
model-print
model-print
model-print